sensor_id;sensor_type;location;lat;lon;timestamp;pressure;altitude;pressure_sealevel;temperature;humidity
58698;BME280;44475;53.206;-6.106;2023-02-20T00:01:22;102097.75;;;23.28;50.77
58698;BME280;44475;53.206;-6.106;2023-02-20T00:03:48;102095.69;;;23.32;50.88
58698;BME280;44475;53.206;-6.106;2023-02-20T00:06:14;102091.50;;;23.26;50.93
58698;BME280;44475;53.206;-6.106;2023-02-20T00:08:41;102095.47;;;23.48;50.41
58698;BME280;44475;53.206;-6.106;2023-02-20T00:11:07;102109.91;;;23.37;50.38
58698;BME280;44475;53.206;-6.106;2023-02-20T00:13:33;102099.84;;;23.37;50.42
58698;BME280;44475;53.206;-6.106;2023-02-20T00:15:59;102090.13;;;23.33;50.60
58698;BME280;44475;53.206;-6.106;2023-02-20T00:18:26;102101.00;;;23.20;51.01
58698;BME280;44475;53.206;-6.106;2023-02-20T00:20:52;102095.75;;;23.17;51.02
58698;BME280;44475;53.206;-6.106;2023-02-20T00:23:18;102105.50;;;23.21;50.92
58698;BME280;44475;53.206;-6.106;2023-02-20T00:25:45;102098.97;;;23.37;50.51
58698;BME280;44475;53.206;-6.106;2023-02-20T00:28:11;102096.00;;;23.27;50.40
58698;BME280;44475;53.206;-6.106;2023-02-20T00:30:38;102088.41;;;23.17;50.98
58698;BME280;44475;53.206;-6.106;2023-02-20T00:33:04;102096.47;;;23.34;50.52
58698;BME280;44475;53.206;-6.106;2023-02-20T00:35:31;102095.00;;;23.28;50.40
58698;BME280;44475;53.206;-6.106;2023-02-20T00:37:57;102089.44;;;23.29;50.30
58698;BME280;44475;53.206;-6.106;2023-02-20T00:40:24;102089.56;;;23.41;50.45
58698;BME280;44475;53.206;-6.106;2023-02-20T00:42:51;102099.50;;;23.29;50.45
58698;BME280;44475;53.206;-6.106;2023-02-20T00:45:17;102086.16;;;23.37;49.99
58698;BME280;44475;53.206;-6.106;2023-02-20T00:47:44;102081.03;;;23.33;50.00
58698;BME280;44475;53.206;-6.106;2023-02-20T00:50:12;102089.34;;;23.31;50.18
58698;BME280;44475;53.206;-6.106;2023-02-20T00:52:39;102077.31;;;23.34;49.98
58698;BME280;44475;53.206;-6.106;2023-02-20T00:55:06;102086.69;;;23.29;50.37
58698;BME280;44475;53.206;-6.106;2023-02-20T00:57:32;102072.38;;;23.39;50.13
58698;BME280;44475;53.206;-6.106;2023-02-20T00:59:58;102079.47;;;23.28;50.32
58698;BME280;44475;53.206;-6.106;2023-02-20T01:02:25;102077.53;;;23.31;50.21
58698;BME280;44475;53.206;-6.106;2023-02-20T01:04:51;102066.03;;;23.25;50.01
58698;BME280;44475;53.206;-6.106;2023-02-20T01:07:18;102078.31;;;23.05;50.80
58698;BME280;44475;53.206;-6.106;2023-02-20T01:09:44;102082.44;;;23.25;50.15
58698;BME280;44475;53.206;-6.106;2023-02-20T01:12:10;102061.50;;;23.11;50.61
58698;BME280;44475;53.206;-6.106;2023-02-20T01:14:37;102068.78;;;23.25;50.03
58698;BME280;44475;53.206;-6.106;2023-02-20T01:17:03;102055.50;;;23.19;50.32
58698;BME280;44475;53.206;-6.106;2023-02-20T01:19:29;102077.72;;;23.27;49.89
58698;BME280;44475;53.206;-6.106;2023-02-20T01:21:55;102066.97;;;23.11;50.44
58698;BME280;44475;53.206;-6.106;2023-02-20T01:24:22;102078.59;;;23.15;50.28
58698;BME280;44475;53.206;-6.106;2023-02-20T01:26:49;102068.00;;;23.23;50.15
58698;BME280;44475;53.206;-6.106;2023-02-20T01:29:16;102070.06;;;23.19;50.31
58698;BME280;44475;53.206;-6.106;2023-02-20T01:31:50;102063.03;;;23.15;50.29
58698;BME280;44475;53.206;-6.106;2023-02-20T01:34:17;102055.59;;;23.04;50.22
58698;BME280;44475;53.206;-6.106;2023-02-20T01:36:52;102057.69;;;23.14;50.49
58698;BME280;44475;53.206;-6.106;2023-02-20T01:39:21;102052.78;;;23.19;50.47
58698;BME280;44475;53.206;-6.106;2023-02-20T01:41:51;102052.97;;;23.16;49.99
58698;BME280;44475;53.206;-6.106;2023-02-20T01:44:29;102063.91;;;23.03;50.52
58698;BME280;44475;53.206;-6.106;2023-02-20T01:47:00;102050.88;;;23.06;50.24
58698;BME280;44475;53.206;-6.106;2023-02-20T01:49:55;102049.88;;;22.94;50.76
58698;BME280;44475;53.206;-6.106;2023-02-20T01:52:26;102050.38;;;23.14;50.01
58698;BME280;44475;53.206;-6.106;2023-02-20T01:54:58;102032.22;;;23.13;49.91
58698;BME280;44475;53.206;-6.106;2023-02-20T01:57:28;102043.47;;;23.08;50.12
58698;BME280;44475;53.206;-6.106;2023-02-20T02:00:02;102040.28;;;23.02;50.60
58698;BME280;44475;53.206;-6.106;2023-02-20T02:02:45;102030.00;;;22.92;50.58
58698;BME280;44475;53.206;-6.106;2023-02-20T02:05:13;102038.00;;;23.08;50.14
58698;BME280;44475;53.206;-6.106;2023-02-20T02:07:39;102052.63;;;23.07;49.96
58698;BME280;44475;53.206;-6.106;2023-02-20T02:10:11;102057.13;;;23.08;49.99
58698;BME280;44475;53.206;-6.106;2023-02-20T02:12:39;102062.50;;;23.10;50.24
58698;BME280;44475;53.206;-6.106;2023-02-20T02:15:15;102052.75;;;23.06;50.20
58698;BME280;44475;53.206;-6.106;2023-02-20T02:21:13;102039.06;;;22.93;50.39
58698;BME280;44475;53.206;-6.106;2023-02-20T02:27:19;102048.00;;;22.95;50.29
58698;BME280;44475;53.206;-6.106;2023-02-20T02:38:21;102029.22;;;22.90;50.42
58698;BME280;44475;53.206;-6.106;2023-02-20T02:41:00;102024.44;;;23.07;50.00
58698;BME280;44475;53.206;-6.106;2023-02-20T02:43:36;102038.09;;;22.94;50.30
58698;BME280;44475;53.206;-6.106;2023-02-20T02:46:27;102025.50;;;22.91;50.22
58698;BME280;44475;53.206;-6.106;2023-02-20T02:49:19;102008.13;;;23.05;49.99
58698;BME280;44475;53.206;-6.106;2023-02-20T02:51:51;102005.09;;;23.10;49.73
58698;BME280;44475;53.206;-6.106;2023-02-20T02:54:23;102013.25;;;22.97;50.00
58698;BME280;44475;53.206;-6.106;2023-02-20T02:57:15;102020.34;;;22.86;50.46
58698;BME280;44475;53.206;-6.106;2023-02-20T02:59:40;102007.84;;;22.82;50.45
58698;BME280;44475;53.206;-6.106;2023-02-20T03:02:12;102001.69;;;23.06;50.11
58698;BME280;44475;53.206;-6.106;2023-02-20T03:04:41;102010.41;;;22.98;49.86
58698;BME280;44475;53.206;-6.106;2023-02-20T03:07:12;102005.16;;;22.95;50.33
58698;BME280;44475;53.206;-6.106;2023-02-20T03:09:49;102008.91;;;23.07;49.66
58698;BME280;44475;53.206;-6.106;2023-02-20T03:12:18;102021.34;;;22.98;50.14
58698;BME280;44475;53.206;-6.106;2023-02-20T03:14:49;102029.00;;;23.06;49.63
58698;BME280;44475;53.206;-6.106;2023-02-20T03:20:20;102016.03;;;23.10;49.77
58698;BME280;44475;53.206;-6.106;2023-02-20T03:25:16;102011.75;;;23.19;49.65
58698;BME280;44475;53.206;-6.106;2023-02-20T03:27:51;102009.19;;;22.89;50.03
58698;BME280;44475;53.206;-6.106;2023-02-20T03:32:51;102014.59;;;23.04;49.67
58698;BME280;44475;53.206;-6.106;2023-02-20T03:35:39;102024.00;;;23.00;49.99
58698;BME280;44475;53.206;-6.106;2023-02-20T03:38:26;102014.59;;;23.04;49.50
58698;BME280;44475;53.206;-6.106;2023-02-20T03:41:15;102013.59;;;22.92;50.15
58698;BME280;44475;53.206;-6.106;2023-02-20T03:44:03;102010.47;;;22.84;50.34
58698;BME280;44475;53.206;-6.106;2023-02-20T03:46:32;102006.41;;;23.04;49.69
58698;BME280;44475;53.206;-6.106;2023-02-20T03:49:09;102018.84;;;23.08;49.74
58698;BME280;44475;53.206;-6.106;2023-02-20T03:51:37;102007.69;;;22.98;49.76
58698;BME280;44475;53.206;-6.106;2023-02-20T03:54:09;102006.13;;;22.94;49.88
58698;BME280;44475;53.206;-6.106;2023-02-20T03:56:44;102006.59;;;23.01;49.52
58698;BME280;44475;53.206;-6.106;2023-02-20T03:59:49;101997.56;;;23.14;49.22
58698;BME280;44475;53.206;-6.106;2023-02-20T04:02:33;101985.19;;;23.08;49.15
58698;BME280;44475;53.206;-6.106;2023-02-20T04:05:22;101986.41;;;23.04;49.79
58698;BME280;44475;53.206;-6.106;2023-02-20T04:08:41;101995.88;;;22.98;49.53
58698;BME280;44475;53.206;-6.106;2023-02-20T04:10:58;101987.50;;;23.14;49.38
58698;BME280;44475;53.206;-6.106;2023-02-20T04:13:26;101976.94;;;22.95;49.38
58698;BME280;44475;53.206;-6.106;2023-02-20T04:15:57;101980.59;;;23.22;48.95
58698;BME280;44475;53.206;-6.106;2023-02-20T04:18:24;101970.22;;;23.14;49.08
58698;BME280;44475;53.206;-6.106;2023-02-20T04:20:55;101970.09;;;23.15;49.17
58698;BME280;44475;53.206;-6.106;2023-02-20T04:23:39;101971.19;;;22.99;49.50
58698;BME280;44475;53.206;-6.106;2023-02-20T04:26:18;101963.19;;;22.96;49.87
58698;BME280;44475;53.206;-6.106;2023-02-20T04:28:48;101967.13;;;23.05;49.38
58698;BME280;44475;53.206;-6.106;2023-02-20T04:31:16;101964.63;;;22.74;50.31
58698;BME280;44475;53.206;-6.106;2023-02-20T04:33:44;101974.22;;;22.95;49.89
58698;BME280;44475;53.206;-6.106;2023-02-20T04:36:16;101965.50;;;23.03;49.67
58698;BME280;44475;53.206;-6.106;2023-02-20T04:38:43;101959.25;;;23.01;49.77
58698;BME280;44475;53.206;-6.106;2023-02-20T04:41:13;101966.38;;;23.03;49.45
58698;BME280;44475;53.206;-6.106;2023-02-20T04:43:39;101960.78;;;23.18;49.08
58698;BME280;44475;53.206;-6.106;2023-02-20T04:46:06;101962.66;;;23.04;49.29
58698;BME280;44475;53.206;-6.106;2023-02-20T04:48:34;101962.44;;;23.07;49.30
58698;BME280;44475;53.206;-6.106;2023-02-20T04:51:01;101951.09;;;23.14;49.13
58698;BME280;44475;53.206;-6.106;2023-02-20T04:53:28;101962.88;;;23.01;49.44
58698;BME280;44475;53.206;-6.106;2023-02-20T04:55:54;101959.91;;;22.91;49.71
58698;BME280;44475;53.206;-6.106;2023-02-20T04:58:23;101960.47;;;23.09;49.14
58698;BME280;44475;53.206;-6.106;2023-02-20T05:00:53;101956.75;;;23.11;49.00
58698;BME280;44475;53.206;-6.106;2023-02-20T05:03:20;101968.47;;;23.13;48.94
58698;BME280;44475;53.206;-6.106;2023-02-20T05:05:46;101968.44;;;22.99;49.54
58698;BME280;44475;53.206;-6.106;2023-02-20T05:08:12;101951.06;;;23.01;49.39
58698;BME280;44475;53.206;-6.106;2023-02-20T05:10:39;101959.16;;;23.02;49.31
58698;BME280;44475;53.206;-6.106;2023-02-20T05:13:05;101953.22;;;22.95;49.39
58698;BME280;44475;53.206;-6.106;2023-02-20T05:15:31;101947.00;;;23.06;49.00
58698;BME280;44475;53.206;-6.106;2023-02-20T05:17:58;101964.63;;;23.15;49.20
58698;BME280;44475;53.206;-6.106;2023-02-20T05:20:24;101953.69;;;23.02;49.38
58698;BME280;44475;53.206;-6.106;2023-02-20T05:23:10;101938.38;;;22.99;49.39
58698;BME280;44475;53.206;-6.106;2023-02-20T05:25:36;101927.88;;;23.06;49.15
58698;BME280;44475;53.206;-6.106;2023-02-20T05:28:03;101946.91;;;23.08;49.34
58698;BME280;44475;53.206;-6.106;2023-02-20T05:30:29;101942.75;;;23.15;49.11
58698;BME280;44475;53.206;-6.106;2023-02-20T05:32:55;101937.72;;;23.09;49.17
58698;BME280;44475;53.206;-6.106;2023-02-20T05:35:21;101949.53;;;23.09;48.92
58698;BME280;44475;53.206;-6.106;2023-02-20T05:37:48;101958.31;;;23.15;48.80
58698;BME280;44475;53.206;-6.106;2023-02-20T05:40:14;101952.03;;;22.99;49.18
58698;BME280;44475;53.206;-6.106;2023-02-20T05:42:40;101949.31;;;23.13;48.89
58698;BME280;44475;53.206;-6.106;2023-02-20T05:45:07;101951.50;;;23.07;49.09
58698;BME280;44475;53.206;-6.106;2023-02-20T05:47:36;101938.59;;;22.96;49.12
58698;BME280;44475;53.206;-6.106;2023-02-20T05:50:04;101931.72;;;23.04;48.88
58698;BME280;44475;53.206;-6.106;2023-02-20T05:52:30;101946.78;;;22.96;49.09
58698;BME280;44475;53.206;-6.106;2023-02-20T05:54:57;101949.97;;;23.03;49.15
58698;BME280;44475;53.206;-6.106;2023-02-20T05:57:23;101945.16;;;23.07;49.06
58698;BME280;44475;53.206;-6.106;2023-02-20T05:59:49;101938.59;;;23.09;49.03
58698;BME280;44475;53.206;-6.106;2023-02-20T06:02:15;101948.75;;;23.07;48.66
58698;BME280;44475;53.206;-6.106;2023-02-20T06:04:42;101945.97;;;22.81;49.37
58698;BME280;44475;53.206;-6.106;2023-02-20T06:07:08;101954.69;;;23.01;49.02
58698;BME280;44475;53.206;-6.106;2023-02-20T06:09:41;101958.19;;;23.03;48.77
58698;BME280;44475;53.206;-6.106;2023-02-20T06:12:08;101945.94;;;23.09;48.53
58698;BME280;44475;53.206;-6.106;2023-02-20T06:14:34;101953.47;;;23.18;48.58
58698;BME280;44475;53.206;-6.106;2023-02-20T06:17:00;101947.13;;;23.18;48.46
58698;BME280;44475;53.206;-6.106;2023-02-20T06:19:27;101954.13;;;23.09;48.75
58698;BME280;44475;53.206;-6.106;2023-02-20T06:21:54;101940.88;;;22.89;49.00
58698;BME280;44475;53.206;-6.106;2023-02-20T06:24:21;101940.78;;;22.91;49.44
58698;BME280;44475;53.206;-6.106;2023-02-20T06:26:47;101940.03;;;23.02;49.16
58698;BME280;44475;53.206;-6.106;2023-02-20T06:29:15;101928.84;;;23.05;48.60
58698;BME280;44475;53.206;-6.106;2023-02-20T06:31:41;101938.41;;;23.13;48.75
58698;BME280;44475;53.206;-6.106;2023-02-20T06:34:08;101931.91;;;22.87;49.14
58698;BME280;44475;53.206;-6.106;2023-02-20T06:36:38;101939.78;;;23.05;49.05
58698;BME280;44475;53.206;-6.106;2023-02-20T06:39:06;101932.25;;;23.09;48.51
58698;BME280;44475;53.206;-6.106;2023-02-20T06:41:33;101927.13;;;23.04;48.75
58698;BME280;44475;53.206;-6.106;2023-02-20T06:43:59;101934.66;;;22.87;49.40
58698;BME280;44475;53.206;-6.106;2023-02-20T06:46:26;101958.94;;;23.05;48.75
58698;BME280;44475;53.206;-6.106;2023-02-20T06:48:55;101930.06;;;23.01;49.00
58698;BME280;44475;53.206;-6.106;2023-02-20T06:51:24;101942.41;;;23.07;48.51
58698;BME280;44475;53.206;-6.106;2023-02-20T06:53:51;101949.75;;;23.06;48.62
58698;BME280;44475;53.206;-6.106;2023-02-20T06:56:21;101938.59;;;23.09;48.66
58698;BME280;44475;53.206;-6.106;2023-02-20T06:58:49;101940.47;;;23.09;48.65
58698;BME280;44475;53.206;-6.106;2023-02-20T07:01:17;101945.16;;;23.07;48.85
58698;BME280;44475;53.206;-6.106;2023-02-20T07:03:46;101956.19;;;23.05;48.91
58698;BME280;44475;53.206;-6.106;2023-02-20T07:06:14;101949.31;;;23.13;48.72
58698;BME280;44475;53.206;-6.106;2023-02-20T07:08:42;101944.63;;;23.15;48.23
58698;BME280;44475;53.206;-6.106;2023-02-20T07:11:09;101931.81;;;23.15;48.32
58698;BME280;44475;53.206;-6.106;2023-02-20T07:13:35;101945.06;;;23.08;48.57
58698;BME280;44475;53.206;-6.106;2023-02-20T07:16:01;101941.53;;;23.06;48.79
58698;BME280;44475;53.206;-6.106;2023-02-20T07:18:27;101937.72;;;23.09;48.44
58698;BME280;44475;53.206;-6.106;2023-02-20T07:20:54;101963.66;;;23.03;48.95
58698;BME280;44475;53.206;-6.106;2023-02-20T07:23:21;101966.50;;;23.02;48.54
58698;BME280;44475;53.206;-6.106;2023-02-20T07:25:48;101963.22;;;23.09;48.37
58698;BME280;44475;53.206;-6.106;2023-02-20T07:28:16;101968.56;;;23.11;48.37
58698;BME280;44475;53.206;-6.106;2023-02-20T07:30:43;101961.78;;;23.04;48.63
58698;BME280;44475;53.206;-6.106;2023-02-20T07:33:10;101956.63;;;22.99;48.63
58698;BME280;44475;53.206;-6.106;2023-02-20T07:35:36;101968.13;;;23.04;48.76
58698;BME280;44475;53.206;-6.106;2023-02-20T07:38:04;101960.78;;;23.05;48.60
58698;BME280;44475;53.206;-6.106;2023-02-20T07:40:31;101961.66;;;23.05;48.54
58698;BME280;44475;53.206;-6.106;2023-02-20T07:42:57;101964.63;;;23.02;48.56
58698;BME280;44475;53.206;-6.106;2023-02-20T07:45:23;101955.69;;;23.13;48.58
58698;BME280;44475;53.206;-6.106;2023-02-20T07:47:50;101947.13;;;23.18;48.26
58698;BME280;44475;53.206;-6.106;2023-02-20T07:50:17;101948.66;;;23.09;48.18
58698;BME280;44475;53.206;-6.106;2023-02-20T07:52:44;101939.69;;;23.20;48.27
58698;BME280;44475;53.206;-6.106;2023-02-20T07:55:17;101947.78;;;23.22;47.80
58698;BME280;44475;53.206;-6.106;2023-02-20T07:57:46;101942.13;;;23.25;47.98
58698;BME280;44475;53.206;-6.106;2023-02-20T08:00:16;101939.38;;;23.12;48.39
58698;BME280;44475;53.206;-6.106;2023-02-20T08:02:43;101927.88;;;23.19;47.95
58698;BME280;44475;53.206;-6.106;2023-02-20T08:05:10;101932.81;;;23.14;48.00
58698;BME280;44475;53.206;-6.106;2023-02-20T08:07:36;101918.38;;;23.12;48.12
58698;BME280;44475;53.206;-6.106;2023-02-20T08:10:04;101913.91;;;23.11;48.09
58698;BME280;44475;53.206;-6.106;2023-02-20T08:12:30;101910.72;;;23.17;48.19
58698;BME280;44475;53.206;-6.106;2023-02-20T08:14:56;101921.00;;;23.14;48.26
58698;BME280;44475;53.206;-6.106;2023-02-20T08:17:23;101897.91;;;23.05;48.46
58698;BME280;44475;53.206;-6.106;2023-02-20T08:19:49;101913.47;;;23.04;48.22
58698;BME280;44475;53.206;-6.106;2023-02-20T08:22:15;101917.28;;;23.15;48.06
58698;BME280;44475;53.206;-6.106;2023-02-20T08:24:41;101905.34;;;23.16;48.24
58698;BME280;44475;53.206;-6.106;2023-02-20T08:27:08;101906.13;;;23.18;48.05
58698;BME280;44475;53.206;-6.106;2023-02-20T08:29:34;101894.56;;;23.14;48.19
58698;BME280;44475;53.206;-6.106;2023-02-20T08:32:00;101907.44;;;23.12;48.07
58698;BME280;44475;53.206;-6.106;2023-02-20T08:34:26;101933.03;;;23.11;47.89
58698;BME280;44475;53.206;-6.106;2023-02-20T08:36:52;101918.81;;;23.19;47.78
58698;BME280;44475;53.206;-6.106;2023-02-20T08:39:19;101930.84;;;23.03;48.36
58698;BME280;44475;53.206;-6.106;2023-02-20T08:41:46;101923.84;;;23.12;48.12
58698;BME280;44475;53.206;-6.106;2023-02-20T08:44:12;101929.31;;;23.12;47.80
58698;BME280;44475;53.206;-6.106;2023-02-20T08:46:49;101922.66;;;23.03;48.19
58698;BME280;44475;53.206;-6.106;2023-02-20T08:49:17;101935.84;;;22.96;48.45
58698;BME280;44475;53.206;-6.106;2023-02-20T08:51:53;101926.56;;;22.99;48.56
58698;BME280;44475;53.206;-6.106;2023-02-20T08:54:20;101924.81;;;22.98;48.39
58698;BME280;44475;53.206;-6.106;2023-02-20T08:56:47;101923.53;;;23.04;48.37
58698;BME280;44475;53.206;-6.106;2023-02-20T08:59:13;101913.78;;;23.13;48.11
58698;BME280;44475;53.206;-6.106;2023-02-20T09:01:43;101920.88;;;23.15;47.87
58698;BME280;44475;53.206;-6.106;2023-02-20T09:04:09;101927.22;;;23.16;48.00
58698;BME280;44475;53.206;-6.106;2023-02-20T09:06:36;101924.72;;;23.13;48.00
58698;BME280;44475;53.206;-6.106;2023-02-20T09:09:03;101915.53;;;23.14;47.73
58698;BME280;44475;53.206;-6.106;2023-02-20T09:11:29;101930.94;;;23.02;48.04
58698;BME280;44475;53.206;-6.106;2023-02-20T09:13:56;101928.44;;;23.12;47.95
58698;BME280;44475;53.206;-6.106;2023-02-20T09:16:23;101911.38;;;23.08;48.11
58698;BME280;44475;53.206;-6.106;2023-02-20T09:18:50;101901.00;;;23.00;48.11
58698;BME280;44475;53.206;-6.106;2023-02-20T09:21:18;101912.25;;;23.08;47.91
58698;BME280;44475;53.206;-6.106;2023-02-20T09:23:45;101898.69;;;23.07;47.96
58698;BME280;44475;53.206;-6.106;2023-02-20T09:26:11;101899.56;;;23.07;48.14
58698;BME280;44475;53.206;-6.106;2023-02-20T09:28:37;101858.91;;;23.03;48.03
58698;BME280;44475;53.206;-6.106;2023-02-20T09:31:05;101885.38;;;23.02;48.07
58698;BME280;44475;53.206;-6.106;2023-02-20T09:33:32;101865.78;;;23.08;48.17
58698;BME280;44475;53.206;-6.106;2023-02-20T09:35:58;101862.94;;;23.23;47.56
58698;BME280;44475;53.206;-6.106;2023-02-20T09:38:24;101877.13;;;23.28;47.39
58698;BME280;44475;53.206;-6.106;2023-02-20T09:40:55;101860.88;;;23.14;47.84
58698;BME280;44475;53.206;-6.106;2023-02-20T09:43:54;101861.19;;;23.22;47.56
58698;BME280;44475;53.206;-6.106;2023-02-20T09:46:25;101867.94;;;23.16;47.72
58698;BME280;44475;53.206;-6.106;2023-02-20T09:51:49;101880.88;;;23.14;47.73
58698;BME280;44475;53.206;-6.106;2023-02-20T09:56:52;101889.28;;;23.24;47.61
58698;BME280;44475;53.206;-6.106;2023-02-20T09:59:32;101870.81;;;23.15;47.79
58698;BME280;44475;53.206;-6.106;2023-02-20T10:04:41;101879.44;;;23.22;47.52
58698;BME280;44475;53.206;-6.106;2023-02-20T10:09:51;101870.00;;;23.26;47.39
58698;BME280;44475;53.206;-6.106;2023-02-20T10:23:32;101874.63;;;23.25;47.56
58698;BME280;44475;53.206;-6.106;2023-02-20T10:28:41;101876.59;;;23.23;47.59
58698;BME280;44475;53.206;-6.106;2023-02-20T10:31:31;101887.44;;;23.25;47.66
58698;BME280;44475;53.206;-6.106;2023-02-20T10:34:22;101882.69;;;23.27;47.21
58698;BME280;44475;53.206;-6.106;2023-02-20T10:36:54;101894.19;;;23.19;47.52
58698;BME280;44475;53.206;-6.106;2023-02-20T10:39:22;101899.34;;;23.24;47.63
58698;BME280;44475;53.206;-6.106;2023-02-20T10:41:59;101888.53;;;23.09;47.76
58698;BME280;44475;53.206;-6.106;2023-02-20T10:44:46;101882.28;;;23.20;47.59
58698;BME280;44475;53.206;-6.106;2023-02-20T10:53:06;101897.28;;;23.14;47.66
58698;BME280;44475;53.206;-6.106;2023-02-20T11:01:02;101895.06;;;23.19;47.50
58698;BME280;44475;53.206;-6.106;2023-02-20T11:06:15;101891.38;;;23.21;47.33
58698;BME280;44475;53.206;-6.106;2023-02-20T11:08:42;101906.13;;;23.18;47.69
58698;BME280;44475;53.206;-6.106;2023-02-20T11:11:32;101912.81;;;23.14;47.63
58698;BME280;44475;53.206;-6.106;2023-02-20T11:14:01;101914.53;;;23.28;47.51
58698;BME280;44475;53.206;-6.106;2023-02-20T11:16:36;101921.22;;;23.24;47.37
58698;BME280;44475;53.206;-6.106;2023-02-20T11:19:20;101921.34;;;23.22;47.47
58698;BME280;44475;53.206;-6.106;2023-02-20T11:21:49;101928.31;;;23.26;47.61
58698;BME280;44475;53.206;-6.106;2023-02-20T11:24:29;101917.63;;;23.23;47.46
58698;BME280;44475;53.206;-6.106;2023-02-20T11:27:04;101917.38;;;23.26;47.36
58698;BME280;44475;53.206;-6.106;2023-02-20T11:29:59;101930.84;;;23.29;47.51
58698;BME280;44475;53.206;-6.106;2023-02-20T11:32:39;101942.34;;;23.35;47.16
58698;BME280;44475;53.206;-6.106;2023-02-20T11:35:38;101932.59;;;23.44;47.17
58698;BME280;44475;53.206;-6.106;2023-02-20T11:43:35;101931.34;;;23.48;46.89
58698;BME280;44475;53.206;-6.106;2023-02-20T11:46:17;101918.56;;;23.48;46.92
58698;BME280;44475;53.206;-6.106;2023-02-20T11:49:06;101920.78;;;23.43;47.04
58698;BME280;44475;53.206;-6.106;2023-02-20T11:51:46;101922.63;;;23.29;47.41
58698;BME280;44475;53.206;-6.106;2023-02-20T11:54:17;101919.78;;;23.44;47.36
58698;BME280;44475;53.206;-6.106;2023-02-20T11:59:47;101912.88;;;23.52;46.83
58698;BME280;44475;53.206;-6.106;2023-02-20T12:04:44;101903.91;;;23.49;47.10
58698;BME280;44475;53.206;-6.106;2023-02-20T12:07:27;101911.91;;;23.39;47.69
58698;BME280;44475;53.206;-6.106;2023-02-20T12:09:58;101910.72;;;23.31;47.62
58698;BME280;44475;53.206;-6.106;2023-02-20T12:12:29;101893.31;;;23.18;47.82
58698;BME280;44475;53.206;-6.106;2023-02-20T12:14:55;101895.84;;;23.22;47.93
58698;BME280;44475;53.206;-6.106;2023-02-20T12:20:25;101886.78;;;23.08;48.81
58698;BME280;44475;53.206;-6.106;2023-02-20T12:24:04;101894.88;;;23.09;48.54
58698;BME280;44475;53.206;-6.106;2023-02-20T12:31:56;101891.56;;;23.31;48.06
58698;BME280;44475;53.206;-6.106;2023-02-20T12:37:18;101877.09;;;23.55;47.90
58698;BME280;44475;53.206;-6.106;2023-02-20T12:40:01;101872.13;;;23.73;47.65
58698;BME280;44475;53.206;-6.106;2023-02-20T12:53:53;101843.34;;;25.01;44.20
58698;BME280;44475;53.206;-6.106;2023-02-20T13:02:24;101839.38;;;25.17;43.90
58698;BME280;44475;53.206;-6.106;2023-02-20T13:04:57;101843.00;;;25.17;44.02
58698;BME280;44475;53.206;-6.106;2023-02-20T13:07:28;101842.34;;;25.14;43.86
58698;BME280;44475;53.206;-6.106;2023-02-20T13:12:42;101853.44;;;25.12;44.01
58698;BME280;44475;53.206;-6.106;2023-02-20T13:20:44;101855.06;;;25.26;43.70
58698;BME280;44475;53.206;-6.106;2023-02-20T13:25:45;101852.84;;;25.32;43.68
58698;BME280;44475;53.206;-6.106;2023-02-20T13:30:41;101840.75;;;25.34;43.43
58698;BME280;44475;53.206;-6.106;2023-02-20T13:33:24;101839.75;;;25.35;43.67
58698;BME280;44475;53.206;-6.106;2023-02-20T13:35:54;101838.00;;;25.34;43.56
58698;BME280;44475;53.206;-6.106;2023-02-20T13:38:22;101846.13;;;25.36;43.49
58698;BME280;44475;53.206;-6.106;2023-02-20T13:53:51;101816.66;;;25.38;43.40
58698;BME280;44475;53.206;-6.106;2023-02-20T13:56:22;101832.25;;;25.37;43.49
58698;BME280;44475;53.206;-6.106;2023-02-20T13:58:50;101822.91;;;25.40;43.38
58698;BME280;44475;53.206;-6.106;2023-02-20T14:01:17;101833.63;;;25.43;43.63
58698;BME280;44475;53.206;-6.106;2023-02-20T14:03:43;101823.78;;;25.41;43.58
58698;BME280;44475;53.206;-6.106;2023-02-20T14:06:17;101829.13;;;25.42;43.72
58698;BME280;44475;53.206;-6.106;2023-02-20T14:08:46;101835.09;;;25.47;43.53
58698;BME280;44475;53.206;-6.106;2023-02-20T14:11:35;101835.09;;;25.47;43.43
58698;BME280;44475;53.206;-6.106;2023-02-20T14:14:10;101836.59;;;25.52;43.59
58698;BME280;44475;53.206;-6.106;2023-02-20T14:16:38;101826.38;;;25.54;43.23
58698;BME280;44475;53.206;-6.106;2023-02-20T14:19:25;101831.13;;;25.52;43.48
58698;BME280;44475;53.206;-6.106;2023-02-20T14:21:52;101831.34;;;25.48;43.66
58698;BME280;44475;53.206;-6.106;2023-02-20T14:24:21;101828.50;;;25.50;43.57
58698;BME280;44475;53.206;-6.106;2023-02-20T14:26:49;101818.38;;;25.51;43.53
58698;BME280;44475;53.206;-6.106;2023-02-20T14:29:28;101819.25;;;25.63;43.33
58698;BME280;44475;53.206;-6.106;2023-02-20T14:31:56;101819.38;;;25.61;43.30
58698;BME280;44475;53.206;-6.106;2023-02-20T14:37:29;101816.84;;;25.70;43.37
58698;BME280;44475;53.206;-6.106;2023-02-20T14:40:17;101809.50;;;25.58;43.51
58698;BME280;44475;53.206;-6.106;2023-02-20T14:42:47;101800.41;;;25.58;43.54
58698;BME280;44475;53.206;-6.106;2023-02-20T14:45:18;101803.03;;;25.60;43.71
58698;BME280;44475;53.206;-6.106;2023-02-20T14:47:56;101808.16;;;25.53;43.69
58698;BME280;44475;53.206;-6.106;2023-02-20T14:53:12;101804.44;;;25.54;43.62
58698;BME280;44475;53.206;-6.106;2023-02-20T14:55:39;101815.06;;;25.47;43.81
58698;BME280;44475;53.206;-6.106;2023-02-20T14:58:13;101812.44;;;25.34;44.12
58698;BME280;44475;53.206;-6.106;2023-02-20T15:00:41;101818.53;;;25.37;44.13
58698;BME280;44475;53.206;-6.106;2023-02-20T15:03:10;101811.34;;;25.25;44.57
58698;BME280;44475;53.206;-6.106;2023-02-20T15:05:41;101812.09;;;25.15;44.70
58698;BME280;44475;53.206;-6.106;2023-02-20T15:10:56;101822.53;;;25.33;44.36
58698;BME280;44475;53.206;-6.106;2023-02-20T15:13:35;101817.59;;;25.15;44.65
58698;BME280;44475;53.206;-6.106;2023-02-20T15:16:11;101817.94;;;25.22;44.59